sensor_id;sensor_type;location;lat;lon;timestamp;P1;durP1;ratioP1;P2;durP2;ratioP2
51746;SDS011;37825;40.088;18.302;2023-03-14T00:00:56;13.23;;;7.57;;
51746;SDS011;37825;40.088;18.302;2023-03-14T00:03:25;10.07;;;8.23;;
51746;SDS011;37825;40.088;18.302;2023-03-14T00:05:54;12.63;;;8.77;;
51746;SDS011;37825;40.088;18.302;2023-03-14T00:08:22;11.63;;;7.27;;
51746;SDS011;37825;40.088;18.302;2023-03-14T00:10:51;15.80;;;6.87;;
51746;SDS011;37825;40.088;18.302;2023-03-14T00:13:19;12.80;;;8.67;;
51746;SDS011;37825;40.088;18.302;2023-03-14T00:15:47;12.93;;;9.17;;
51746;SDS011;37825;40.088;18.302;2023-03-14T00:18:16;13.40;;;9.23;;
51746;SDS011;37825;40.088;18.302;2023-03-14T00:20:46;12.67;;;8.60;;
51746;SDS011;37825;40.088;18.302;2023-03-14T00:23:15;12.40;;;8.13;;
51746;SDS011;37825;40.088;18.302;2023-03-14T00:25:43;12.93;;;8.87;;
51746;SDS011;37825;40.088;18.302;2023-03-14T00:28:11;10.30;;;7.70;;
51746;SDS011;37825;40.088;18.302;2023-03-14T00:30:40;11.33;;;8.20;;
51746;SDS011;37825;40.088;18.302;2023-03-14T00:33:08;14.67;;;9.23;;
51746;SDS011;37825;40.088;18.302;2023-03-14T00:35:36;14.07;;;8.03;;
51746;SDS011;37825;40.088;18.302;2023-03-14T00:38:05;13.90;;;7.70;;
51746;SDS011;37825;40.088;18.302;2023-03-14T00:40:33;11.97;;;8.23;;
51746;SDS011;37825;40.088;18.302;2023-03-14T00:43:01;13.83;;;7.70;;
51746;SDS011;37825;40.088;18.302;2023-03-14T00:45:30;14.83;;;8.93;;
51746;SDS011;37825;40.088;18.302;2023-03-14T00:47:59;13.27;;;9.10;;
51746;SDS011;37825;40.088;18.302;2023-03-14T00:50:27;10.27;;;8.30;;
51746;SDS011;37825;40.088;18.302;2023-03-14T00:52:55;9.63;;;8.63;;
51746;SDS011;37825;40.088;18.302;2023-03-14T00:55:24;11.30;;;8.23;;
51746;SDS011;37825;40.088;18.302;2023-03-14T00:57:53;12.80;;;8.37;;
51746;SDS011;37825;40.088;18.302;2023-03-14T01:00:21;13.80;;;9.67;;
51746;SDS011;37825;40.088;18.302;2023-03-14T01:02:49;12.67;;;8.70;;
51746;SDS011;37825;40.088;18.302;2023-03-14T01:05:17;15.90;;;10.97;;
51746;SDS011;37825;40.088;18.302;2023-03-14T01:07:45;13.93;;;10.37;;
51746;SDS011;37825;40.088;18.302;2023-03-14T01:10:14;10.97;;;9.40;;
51746;SDS011;37825;40.088;18.302;2023-03-14T01:12:42;13.67;;;8.57;;
51746;SDS011;37825;40.088;18.302;2023-03-14T01:15:10;15.67;;;8.73;;
51746;SDS011;37825;40.088;18.302;2023-03-14T01:17:38;13.97;;;8.70;;
51746;SDS011;37825;40.088;18.302;2023-03-14T01:20:08;12.53;;;8.50;;
51746;SDS011;37825;40.088;18.302;2023-03-14T01:22:38;12.63;;;8.60;;
51746;SDS011;37825;40.088;18.302;2023-03-14T01:25:07;11.37;;;8.47;;
51746;SDS011;37825;40.088;18.302;2023-03-14T01:27:36;11.67;;;8.53;;
51746;SDS011;37825;40.088;18.302;2023-03-14T01:30:05;10.03;;;9.03;;
51746;SDS011;37825;40.088;18.302;2023-03-14T01:32:35;21.00;;;9.23;;
51746;SDS011;37825;40.088;18.302;2023-03-14T01:35:04;12.73;;;8.43;;
51746;SDS011;37825;40.088;18.302;2023-03-14T01:37:34;16.50;;;11.07;;
51746;SDS011;37825;40.088;18.302;2023-03-14T01:40:04;14.77;;;11.80;;
51746;SDS011;37825;40.088;18.302;2023-03-14T01:42:33;15.30;;;11.00;;
51746;SDS011;37825;40.088;18.302;2023-03-14T01:45:02;14.23;;;9.80;;
51746;SDS011;37825;40.088;18.302;2023-03-14T01:47:30;13.57;;;10.80;;
51746;SDS011;37825;40.088;18.302;2023-03-14T01:50:04;18.33;;;11.10;;
51746;SDS011;37825;40.088;18.302;2023-03-14T01:52:36;16.80;;;11.87;;
51746;SDS011;37825;40.088;18.302;2023-03-14T01:55:11;18.70;;;10.73;;
51746;SDS011;37825;40.088;18.302;2023-03-14T01:58:02;17.65;;;9.25;;
51746;SDS011;37825;40.088;18.302;2023-03-14T02:00:29;11.53;;;8.63;;
51746;SDS011;37825;40.088;18.302;2023-03-14T02:03:01;14.63;;;8.50;;
51746;SDS011;37825;40.088;18.302;2023-03-14T02:05:32;13.07;;;10.27;;
51746;SDS011;37825;40.088;18.302;2023-03-14T02:08:05;9.57;;;8.57;;
51746;SDS011;37825;40.088;18.302;2023-03-14T02:10:43;12.50;;;8.03;;
51746;SDS011;37825;40.088;18.302;2023-03-14T02:13:13;10.90;;;8.68;;
51746;SDS011;37825;40.088;18.302;2023-03-14T02:16:01;12.03;;;8.97;;
51746;SDS011;37825;40.088;18.302;2023-03-14T02:18:48;10.47;;;8.30;;
51746;SDS011;37825;40.088;18.302;2023-03-14T02:21:34;9.03;;;7.70;;
51746;SDS011;37825;40.088;18.302;2023-03-14T02:29:30;12.47;;;9.93;;
51746;SDS011;37825;40.088;18.302;2023-03-14T02:32:02;18.20;;;13.77;;
51746;SDS011;37825;40.088;18.302;2023-03-14T02:34:30;14.77;;;10.87;;
51746;SDS011;37825;40.088;18.302;2023-03-14T02:36:59;11.37;;;9.73;;
51746;SDS011;37825;40.088;18.302;2023-03-14T02:39:38;12.07;;;10.73;;
51746;SDS011;37825;40.088;18.302;2023-03-14T02:42:07;12.73;;;10.50;;
51746;SDS011;37825;40.088;18.302;2023-03-14T02:44:35;13.83;;;10.83;;
51746;SDS011;37825;40.088;18.302;2023-03-14T02:47:04;13.27;;;10.13;;
51746;SDS011;37825;40.088;18.302;2023-03-14T02:49:32;13.67;;;11.57;;
51746;SDS011;37825;40.088;18.302;2023-03-14T02:52:01;10.90;;;9.03;;
51746;SDS011;37825;40.088;18.302;2023-03-14T02:54:30;18.33;;;9.83;;
51746;SDS011;37825;40.088;18.302;2023-03-14T02:56:58;11.67;;;9.23;;
51746;SDS011;37825;40.088;18.302;2023-03-14T02:59:26;13.53;;;8.93;;
51746;SDS011;37825;40.088;18.302;2023-03-14T03:01:59;20.73;;;15.20;;
51746;SDS011;37825;40.088;18.302;2023-03-14T03:04:27;16.33;;;11.80;;
51746;SDS011;37825;40.088;18.302;2023-03-14T03:06:56;14.97;;;11.83;;
51746;SDS011;37825;40.088;18.302;2023-03-14T03:09:24;12.17;;;10.20;;
51746;SDS011;37825;40.088;18.302;2023-03-14T03:11:52;14.30;;;9.67;;
51746;SDS011;37825;40.088;18.302;2023-03-14T03:14:23;12.50;;;8.70;;
51746;SDS011;37825;40.088;18.302;2023-03-14T03:16:51;11.73;;;9.37;;
51746;SDS011;37825;40.088;18.302;2023-03-14T03:19:21;10.20;;;8.17;;
51746;SDS011;37825;40.088;18.302;2023-03-14T03:21:49;11.17;;;7.63;;
51746;SDS011;37825;40.088;18.302;2023-03-14T03:24:18;11.83;;;7.90;;
51746;SDS011;37825;40.088;18.302;2023-03-14T03:26:46;11.37;;;8.43;;
51746;SDS011;37825;40.088;18.302;2023-03-14T03:29:14;9.30;;;8.40;;
51746;SDS011;37825;40.088;18.302;2023-03-14T03:31:43;15.40;;;8.87;;
51746;SDS011;37825;40.088;18.302;2023-03-14T03:34:13;12.70;;;9.10;;
51746;SDS011;37825;40.088;18.302;2023-03-14T03:36:42;13.00;;;9.83;;
51746;SDS011;37825;40.088;18.302;2023-03-14T03:39:12;12.60;;;8.37;;
51746;SDS011;37825;40.088;18.302;2023-03-14T03:41:40;12.00;;;9.30;;
51746;SDS011;37825;40.088;18.302;2023-03-14T03:44:10;12.53;;;8.00;;
51746;SDS011;37825;40.088;18.302;2023-03-14T03:46:40;11.27;;;8.23;;
51746;SDS011;37825;40.088;18.302;2023-03-14T03:49:08;11.90;;;8.50;;
51746;SDS011;37825;40.088;18.302;2023-03-14T03:51:36;12.47;;;8.97;;
51746;SDS011;37825;40.088;18.302;2023-03-14T03:54:05;11.03;;;8.77;;
51746;SDS011;37825;40.088;18.302;2023-03-14T03:56:33;10.73;;;9.53;;
51746;SDS011;37825;40.088;18.302;2023-03-14T03:59:01;11.13;;;8.47;;
51746;SDS011;37825;40.088;18.302;2023-03-14T04:01:30;9.40;;;7.60;;
51746;SDS011;37825;40.088;18.302;2023-03-14T04:03:59;13.07;;;9.47;;
51746;SDS011;37825;40.088;18.302;2023-03-14T04:06:27;14.87;;;8.30;;
51746;SDS011;37825;40.088;18.302;2023-03-14T04:08:58;14.23;;;9.13;;
51746;SDS011;37825;40.088;18.302;2023-03-14T04:11:47;10.87;;;7.07;;
51746;SDS011;37825;40.088;18.302;2023-03-14T04:14:21;11.10;;;7.83;;
51746;SDS011;37825;40.088;18.302;2023-03-14T04:16:59;11.43;;;8.57;;
51746;SDS011;37825;40.088;18.302;2023-03-14T04:19:29;10.60;;;8.13;;
51746;SDS011;37825;40.088;18.302;2023-03-14T04:21:57;14.43;;;8.20;;
51746;SDS011;37825;40.088;18.302;2023-03-14T04:24:32;8.13;;;7.13;;
51746;SDS011;37825;40.088;18.302;2023-03-14T04:27:00;14.47;;;9.30;;
51746;SDS011;37825;40.088;18.302;2023-03-14T04:29:28;12.57;;;8.20;;
51746;SDS011;37825;40.088;18.302;2023-03-14T04:31:57;11.50;;;8.80;;
51746;SDS011;37825;40.088;18.302;2023-03-14T04:34:25;9.63;;;8.10;;
51746;SDS011;37825;40.088;18.302;2023-03-14T04:36:55;13.80;;;7.33;;
51746;SDS011;37825;40.088;18.302;2023-03-14T04:39:32;12.50;;;7.80;;
51746;SDS011;37825;40.088;18.302;2023-03-14T04:42:10;11.67;;;7.80;;
51746;SDS011;37825;40.088;18.302;2023-03-14T04:44:38;13.57;;;8.13;;
51746;SDS011;37825;40.088;18.302;2023-03-14T04:47:07;13.17;;;7.33;;
51746;SDS011;37825;40.088;18.302;2023-03-14T04:49:37;16.10;;;7.80;;
51746;SDS011;37825;40.088;18.302;2023-03-14T04:52:07;8.57;;;6.97;;
51746;SDS011;37825;40.088;18.302;2023-03-14T04:54:36;11.33;;;7.07;;
51746;SDS011;37825;40.088;18.302;2023-03-14T04:57:05;13.93;;;6.00;;
51746;SDS011;37825;40.088;18.302;2023-03-14T04:59:35;10.10;;;6.53;;
51746;SDS011;37825;40.088;18.302;2023-03-14T05:02:16;9.00;;;6.40;;
51746;SDS011;37825;40.088;18.302;2023-03-14T05:04:54;12.03;;;6.63;;
51746;SDS011;37825;40.088;18.302;2023-03-14T05:07:38;13.00;;;6.53;;
51746;SDS011;37825;40.088;18.302;2023-03-14T05:10:21;18.70;;;6.67;;
51746;SDS011;37825;40.088;18.302;2023-03-14T05:13:07;9.57;;;5.50;;
51746;SDS011;37825;40.088;18.302;2023-03-14T05:15:47;10.07;;;5.33;;
51746;SDS011;37825;40.088;18.302;2023-03-14T05:18:37;14.23;;;5.87;;
51746;SDS011;37825;40.088;18.302;2023-03-14T05:21:11;11.93;;;5.13;;
51746;SDS011;37825;40.088;18.302;2023-03-14T05:24:12;9.33;;;5.63;;
51746;SDS011;37825;40.088;18.302;2023-03-14T05:26:59;11.20;;;4.90;;
51746;SDS011;37825;40.088;18.302;2023-03-14T05:29:51;16.88;;;5.70;;
51746;SDS011;37825;40.088;18.302;2023-03-14T05:32:38;12.37;;;5.03;;
51746;SDS011;37825;40.088;18.302;2023-03-14T05:35:38;10.03;;;5.73;;
51746;SDS011;37825;40.088;18.302;2023-03-14T05:38:30;16.83;;;8.98;;
51746;SDS011;37825;40.088;18.302;2023-03-14T05:41:09;13.80;;;7.80;;
51746;SDS011;37825;40.088;18.302;2023-03-14T05:43:37;14.30;;;7.13;;
51746;SDS011;37825;40.088;18.302;2023-03-14T05:46:24;13.07;;;7.53;;
51746;SDS011;37825;40.088;18.302;2023-03-14T05:49:11;13.57;;;7.17;;
51746;SDS011;37825;40.088;18.302;2023-03-14T05:52:12;14.07;;;7.73;;
51746;SDS011;37825;40.088;18.302;2023-03-14T05:55:15;14.83;;;6.80;;
51746;SDS011;37825;40.088;18.302;2023-03-14T05:58:07;12.68;;;7.40;;
51746;SDS011;37825;40.088;18.302;2023-03-14T06:00:41;15.70;;;7.43;;
51746;SDS011;37825;40.088;18.302;2023-03-14T06:03:27;10.80;;;6.13;;
51746;SDS011;37825;40.088;18.302;2023-03-14T06:05:56;16.87;;;6.87;;
51746;SDS011;37825;40.088;18.302;2023-03-14T06:08:25;15.07;;;6.53;;
51746;SDS011;37825;40.088;18.302;2023-03-14T06:10:54;12.83;;;6.83;;
51746;SDS011;37825;40.088;18.302;2023-03-14T06:13:27;18.77;;;6.90;;
51746;SDS011;37825;40.088;18.302;2023-03-14T06:15:55;17.10;;;9.63;;
51746;SDS011;37825;40.088;18.302;2023-03-14T06:18:24;14.70;;;7.13;;
51746;SDS011;37825;40.088;18.302;2023-03-14T06:20:54;16.50;;;8.13;;
51746;SDS011;37825;40.088;18.302;2023-03-14T06:23:25;18.23;;;10.53;;
51746;SDS011;37825;40.088;18.302;2023-03-14T06:25:56;21.67;;;12.90;;
51746;SDS011;37825;40.088;18.302;2023-03-14T06:28:25;18.10;;;8.20;;
51746;SDS011;37825;40.088;18.302;2023-03-14T06:30:58;16.63;;;6.53;;
51746;SDS011;37825;40.088;18.302;2023-03-14T06:33:32;7.57;;;4.90;;
51746;SDS011;37825;40.088;18.302;2023-03-14T06:36:01;13.03;;;5.50;;
51746;SDS011;37825;40.088;18.302;2023-03-14T06:38:31;11.43;;;5.03;;
51746;SDS011;37825;40.088;18.302;2023-03-14T06:41:03;6.40;;;3.10;;
51746;SDS011;37825;40.088;18.302;2023-03-14T06:43:39;9.80;;;4.33;;
51746;SDS011;37825;40.088;18.302;2023-03-14T06:46:08;9.43;;;4.30;;
51746;SDS011;37825;40.088;18.302;2023-03-14T06:48:39;10.13;;;3.70;;
51746;SDS011;37825;40.088;18.302;2023-03-14T06:51:08;13.73;;;3.83;;
51746;SDS011;37825;40.088;18.302;2023-03-14T06:53:36;6.20;;;3.63;;
51746;SDS011;37825;40.088;18.302;2023-03-14T06:56:05;9.95;;;3.30;;
51746;SDS011;37825;40.088;18.302;2023-03-14T06:58:34;8.67;;;3.87;;
51746;SDS011;37825;40.088;18.302;2023-03-14T07:01:05;4.80;;;2.35;;
51746;SDS011;37825;40.088;18.302;2023-03-14T07:03:39;16.15;;;3.65;;
51746;SDS011;37825;40.088;18.302;2023-03-14T07:06:08;5.40;;;2.47;;
51746;SDS011;37825;40.088;18.302;2023-03-14T07:08:36;8.15;;;2.97;;
51746;SDS011;37825;40.088;18.302;2023-03-14T07:11:06;6.55;;;3.17;;
51746;SDS011;37825;40.088;18.302;2023-03-14T07:13:34;13.95;;;4.18;;
51746;SDS011;37825;40.088;18.302;2023-03-14T07:16:07;12.23;;;4.95;;
51746;SDS011;37825;40.088;18.302;2023-03-14T07:18:37;18.17;;;8.55;;
51746;SDS011;37825;40.088;18.302;2023-03-14T07:21:06;7.93;;;4.10;;
51746;SDS011;37825;40.088;18.302;2023-03-14T07:23:37;15.40;;;4.97;;
51746;SDS011;37825;40.088;18.302;2023-03-14T07:26:07;5.70;;;2.20;;
51746;SDS011;37825;40.088;18.302;2023-03-14T07:28:39;7.82;;;3.08;;
51746;SDS011;37825;40.088;18.302;2023-03-14T07:31:12;7.75;;;3.35;;
51746;SDS011;37825;40.088;18.302;2023-03-14T07:33:41;7.80;;;3.13;;
51746;SDS011;37825;40.088;18.302;2023-03-14T07:36:10;7.97;;;3.25;;
51746;SDS011;37825;40.088;18.302;2023-03-14T07:38:43;6.72;;;2.35;;
51746;SDS011;37825;40.088;18.302;2023-03-14T07:41:23;4.55;;;2.25;;
51746;SDS011;37825;40.088;18.302;2023-03-14T07:44:09;6.18;;;2.42;;
51746;SDS011;37825;40.088;18.302;2023-03-14T07:46:37;7.93;;;3.20;;
51746;SDS011;37825;40.088;18.302;2023-03-14T07:49:06;7.65;;;2.42;;
51746;SDS011;37825;40.088;18.302;2023-03-14T07:51:34;7.53;;;2.47;;
51746;SDS011;37825;40.088;18.302;2023-03-14T07:54:02;2.78;;;1.35;;
51746;SDS011;37825;40.088;18.302;2023-03-14T07:56:31;11.20;;;3.42;;
51746;SDS011;37825;40.088;18.302;2023-03-14T07:58:59;5.55;;;2.03;;
51746;SDS011;37825;40.088;18.302;2023-03-14T08:01:28;5.13;;;2.50;;
51746;SDS011;37825;40.088;18.302;2023-03-14T08:03:56;8.75;;;2.42;;
51746;SDS011;37825;40.088;18.302;2023-03-14T08:06:25;4.15;;;1.48;;
51746;SDS011;37825;40.088;18.302;2023-03-14T08:08:54;5.60;;;1.95;;
51746;SDS011;37825;40.088;18.302;2023-03-14T08:11:22;5.25;;;2.40;;
51746;SDS011;37825;40.088;18.302;2023-03-14T08:13:50;3.28;;;1.85;;
51746;SDS011;37825;40.088;18.302;2023-03-14T08:16:19;8.25;;;2.67;;
51746;SDS011;37825;40.088;18.302;2023-03-14T08:18:48;3.08;;;1.42;;
51746;SDS011;37825;40.088;18.302;2023-03-14T08:21:17;8.00;;;2.70;;
51746;SDS011;37825;40.088;18.302;2023-03-14T08:23:45;4.53;;;1.73;;
51746;SDS011;37825;40.088;18.302;2023-03-14T08:26:13;6.65;;;1.98;;
51746;SDS011;37825;40.088;18.302;2023-03-14T08:28:42;4.13;;;1.58;;
51746;SDS011;37825;40.088;18.302;2023-03-14T08:31:10;9.10;;;5.38;;
51746;SDS011;37825;40.088;18.302;2023-03-14T08:33:39;8.18;;;2.60;;
51746;SDS011;37825;40.088;18.302;2023-03-14T08:36:09;4.38;;;1.25;;
51746;SDS011;37825;40.088;18.302;2023-03-14T08:38:37;11.73;;;2.35;;
51746;SDS011;37825;40.088;18.302;2023-03-14T08:41:05;4.30;;;1.38;;
51746;SDS011;37825;40.088;18.302;2023-03-14T08:43:34;4.22;;;1.50;;
51746;SDS011;37825;40.088;18.302;2023-03-14T08:46:02;7.80;;;1.65;;
51746;SDS011;37825;40.088;18.302;2023-03-14T08:48:31;5.15;;;1.50;;
51746;SDS011;37825;40.088;18.302;2023-03-14T08:51:09;4.18;;;1.88;;
51746;SDS011;37825;40.088;18.302;2023-03-14T08:53:41;5.95;;;1.67;;
51746;SDS011;37825;40.088;18.302;2023-03-14T08:56:09;5.40;;;1.58;;
51746;SDS011;37825;40.088;18.302;2023-03-14T08:58:37;3.70;;;1.27;;
51746;SDS011;37825;40.088;18.302;2023-03-14T09:01:06;2.88;;;0.98;;
51746;SDS011;37825;40.088;18.302;2023-03-14T09:03:36;4.60;;;1.48;;
51746;SDS011;37825;40.088;18.302;2023-03-14T09:06:05;3.78;;;1.80;;
51746;SDS011;37825;40.088;18.302;2023-03-14T09:08:35;9.05;;;2.15;;
51746;SDS011;37825;40.088;18.302;2023-03-14T09:11:08;3.88;;;1.48;;
51746;SDS011;37825;40.088;18.302;2023-03-14T09:16:05;7.65;;;1.33;;
51746;SDS011;37825;40.088;18.302;2023-03-14T09:18:33;8.05;;;2.67;;
51746;SDS011;37825;40.088;18.302;2023-03-14T09:21:02;4.97;;;1.20;;
51746;SDS011;37825;40.088;18.302;2023-03-14T09:23:30;9.07;;;3.60;;
51746;SDS011;37825;40.088;18.302;2023-03-14T09:25:59;4.50;;;1.88;;
51746;SDS011;37825;40.088;18.302;2023-03-14T09:28:28;8.13;;;1.88;;
51746;SDS011;37825;40.088;18.302;2023-03-14T09:30:56;5.75;;;1.70;;
51746;SDS011;37825;40.088;18.302;2023-03-14T09:33:25;4.05;;;1.25;;
51746;SDS011;37825;40.088;18.302;2023-03-14T09:35:57;9.38;;;1.98;;
51746;SDS011;37825;40.088;18.302;2023-03-14T09:38:27;4.97;;;1.70;;
51746;SDS011;37825;40.088;18.302;2023-03-14T09:40:57;6.85;;;1.92;;
51746;SDS011;37825;40.088;18.302;2023-03-14T09:43:27;8.93;;;1.90;;
51746;SDS011;37825;40.088;18.302;2023-03-14T09:45:57;7.70;;;1.75;;
51746;SDS011;37825;40.088;18.302;2023-03-14T09:48:29;4.03;;;1.80;;
51746;SDS011;37825;40.088;18.302;2023-03-14T09:50:59;4.15;;;1.33;;
51746;SDS011;37825;40.088;18.302;2023-03-14T09:53:50;5.53;;;1.38;;
51746;SDS011;37825;40.088;18.302;2023-03-14T09:56:20;6.28;;;1.63;;
51746;SDS011;37825;40.088;18.302;2023-03-14T09:58:51;3.97;;;1.40;;
51746;SDS011;37825;40.088;18.302;2023-03-14T10:01:21;4.75;;;1.23;;
51746;SDS011;37825;40.088;18.302;2023-03-14T10:03:51;8.20;;;1.88;;
51746;SDS011;37825;40.088;18.302;2023-03-14T10:06:21;2.97;;;1.13;;
51746;SDS011;37825;40.088;18.302;2023-03-14T10:08:51;5.35;;;1.25;;
51746;SDS011;37825;40.088;18.302;2023-03-14T10:11:20;8.90;;;1.63;;
51746;SDS011;37825;40.088;18.302;2023-03-14T10:19:05;5.88;;;1.40;;
51746;SDS011;37825;40.088;18.302;2023-03-14T10:21:38;12.02;;;1.67;;
51746;SDS011;37825;40.088;18.302;2023-03-14T10:24:08;6.45;;;2.42;;
51746;SDS011;37825;40.088;18.302;2023-03-14T10:26:36;10.30;;;2.92;;
51746;SDS011;37825;40.088;18.302;2023-03-14T10:29:12;5.22;;;1.50;;
51746;SDS011;37825;40.088;18.302;2023-03-14T10:34:16;9.75;;;2.05;;
51746;SDS011;37825;40.088;18.302;2023-03-14T10:36:45;6.00;;;1.70;;
51746;SDS011;37825;40.088;18.302;2023-03-14T10:39:48;11.10;;;1.80;;
51746;SDS011;37825;40.088;18.302;2023-03-14T10:44:58;6.95;;;2.13;;
51746;SDS011;37825;40.088;18.302;2023-03-14T10:47:28;7.15;;;1.83;;
51746;SDS011;37825;40.088;18.302;2023-03-14T10:49:57;6.30;;;1.75;;
51746;SDS011;37825;40.088;18.302;2023-03-14T10:52:51;8.27;;;2.25;;
51746;SDS011;37825;40.088;18.302;2023-03-14T10:55:32;9.35;;;2.67;;
51746;SDS011;37825;40.088;18.302;2023-03-14T10:58:20;4.05;;;1.23;;
51746;SDS011;37825;40.088;18.302;2023-03-14T11:03:35;8.30;;;2.92;;
51746;SDS011;37825;40.088;18.302;2023-03-14T11:06:06;6.50;;;1.60;;
51746;SDS011;37825;40.088;18.302;2023-03-14T11:08:42;2.50;;;0.68;;
51746;SDS011;37825;40.088;18.302;2023-03-14T11:11:26;3.97;;;1.55;;
51746;SDS011;37825;40.088;18.302;2023-03-14T11:22:27;8.75;;;2.75;;
51746;SDS011;37825;40.088;18.302;2023-03-14T11:30:48;3.42;;;1.58;;
51746;SDS011;37825;40.088;18.302;2023-03-14T11:33:25;10.40;;;2.25;;
51746;SDS011;37825;40.088;18.302;2023-03-14T11:38:34;6.28;;;1.70;;
51746;SDS011;37825;40.088;18.302;2023-03-14T11:41:10;7.45;;;1.92;;
51746;SDS011;37825;40.088;18.302;2023-03-14T11:43:42;14.32;;;2.38;;
51746;SDS011;37825;40.088;18.302;2023-03-14T11:49:27;9.07;;;2.50;;
51746;SDS011;37825;40.088;18.302;2023-03-14T11:51:31;6.18;;;1.55;;
51746;SDS011;37825;40.088;18.302;2023-03-14T11:56:37;4.53;;;2.22;;
51746;SDS011;37825;40.088;18.302;2023-03-14T11:59:51;10.10;;;3.22;;
51746;SDS011;37825;40.088;18.302;2023-03-14T12:02:00;7.88;;;2.92;;
51746;SDS011;37825;40.088;18.302;2023-03-14T12:07:20;8.73;;;3.72;;
51746;SDS011;37825;40.088;18.302;2023-03-14T12:09:50;10.30;;;3.53;;
51746;SDS011;37825;40.088;18.302;2023-03-14T12:12:22;17.95;;;3.15;;
51746;SDS011;37825;40.088;18.302;2023-03-14T12:14:53;5.13;;;2.15;;
51746;SDS011;37825;40.088;18.302;2023-03-14T12:17:26;4.43;;;1.45;;
51746;SDS011;37825;40.088;18.302;2023-03-14T12:22:49;11.43;;;3.60;;
51746;SDS011;37825;40.088;18.302;2023-03-14T12:25:20;8.90;;;3.15;;
51746;SDS011;37825;40.088;18.302;2023-03-14T12:38:09;16.15;;;6.18;;
51746;SDS011;37825;40.088;18.302;2023-03-14T12:43:27;7.60;;;3.65;;
51746;SDS011;37825;40.088;18.302;2023-03-14T12:48:44;7.53;;;3.08;;
51746;SDS011;37825;40.088;18.302;2023-03-14T12:51:13;12.32;;;5.50;;
51746;SDS011;37825;40.088;18.302;2023-03-14T12:56:51;14.73;;;6.53;;
51746;SDS011;37825;40.088;18.302;2023-03-14T13:01:55;7.28;;;4.20;;
51746;SDS011;37825;40.088;18.302;2023-03-14T13:12:51;8.35;;;4.38;;
51746;SDS011;37825;40.088;18.302;2023-03-14T13:15:27;8.38;;;3.10;;
51746;SDS011;37825;40.088;18.302;2023-03-14T13:17:59;7.68;;;2.38;;
51746;SDS011;37825;40.088;18.302;2023-03-14T13:20:34;13.80;;;5.78;;
51746;SDS011;37825;40.088;18.302;2023-03-14T13:23:03;10.95;;;4.20;;
51746;SDS011;37825;40.088;18.302;2023-03-14T13:25:32;9.43;;;4.95;;
51746;SDS011;37825;40.088;18.302;2023-03-14T13:28:01;6.60;;;3.60;;
51746;SDS011;37825;40.088;18.302;2023-03-14T13:30:36;19.40;;;10.80;;
51746;SDS011;37825;40.088;18.302;2023-03-14T13:33:11;16.27;;;7.25;;
51746;SDS011;37825;40.088;18.302;2023-03-14T13:35:44;11.82;;;5.15;;
51746;SDS011;37825;40.088;18.302;2023-03-14T13:38:17;10.00;;;3.50;;
51746;SDS011;37825;40.088;18.302;2023-03-14T13:40:47;8.88;;;3.20;;
51746;SDS011;37825;40.088;18.302;2023-03-14T13:43:21;8.02;;;3.50;;
51746;SDS011;37825;40.088;18.302;2023-03-14T13:48:19;9.05;;;5.20;;
51746;SDS011;37825;40.088;18.302;2023-03-14T13:50:50;5.50;;;3.20;;
51746;SDS011;37825;40.088;18.302;2023-03-14T13:53:19;17.85;;;7.53;;
51746;SDS011;37825;40.088;18.302;2023-03-14T13:55:47;10.60;;;4.93;;
51746;SDS011;37825;40.088;18.302;2023-03-14T13:58:20;17.88;;;8.75;;
51746;SDS011;37825;40.088;18.302;2023-03-14T14:00:56;23.85;;;12.18;;
51746;SDS011;37825;40.088;18.302;2023-03-14T14:03:25;25.98;;;15.55;;
51746;SDS011;37825;40.088;18.302;2023-03-14T14:05:54;17.70;;;8.65;;
51746;SDS011;37825;40.088;18.302;2023-03-14T14:08:24;12.50;;;3.80;;
51746;SDS011;37825;40.088;18.302;2023-03-14T14:10:53;8.82;;;2.90;;
51746;SDS011;37825;40.088;18.302;2023-03-14T14:13:22;19.23;;;8.50;;
51746;SDS011;37825;40.088;18.302;2023-03-14T14:15:52;17.35;;;7.80;;
51746;SDS011;37825;40.088;18.302;2023-03-14T14:18:22;11.90;;;6.05;;
51746;SDS011;37825;40.088;18.302;2023-03-14T14:20:52;14.90;;;8.20;;
51746;SDS011;37825;40.088;18.302;2023-03-14T14:23:20;13.30;;;4.60;;
51746;SDS011;37825;40.088;18.302;2023-03-14T14:25:52;7.28;;;2.78;;
51746;SDS011;37825;40.088;18.302;2023-03-14T14:28:28;9.40;;;5.38;;
51746;SDS011;37825;40.088;18.302;2023-03-14T14:31:00;18.27;;;7.45;;
51746;SDS011;37825;40.088;18.302;2023-03-14T14:33:28;14.30;;;4.65;;
51746;SDS011;37825;40.088;18.302;2023-03-14T14:35:58;11.68;;;5.68;;
51746;SDS011;37825;40.088;18.302;2023-03-14T14:38:27;7.90;;;3.97;;
51746;SDS011;37825;40.088;18.302;2023-03-14T14:41:00;7.65;;;2.72;;
51746;SDS011;37825;40.088;18.302;2023-03-14T14:43:30;12.45;;;2.45;;
51746;SDS011;37825;40.088;18.302;2023-03-14T14:46:01;11.52;;;3.42;;
51746;SDS011;37825;40.088;18.302;2023-03-14T14:48:31;9.15;;;4.47;;
51746;SDS011;37825;40.088;18.302;2023-03-14T14:51:04;20.88;;;8.05;;
51746;SDS011;37825;40.088;18.302;2023-03-14T14:53:42;19.08;;;7.50;;
51746;SDS011;37825;40.088;18.302;2023-03-14T14:56:25;25.73;;;12.63;;
51746;SDS011;37825;40.088;18.302;2023-03-14T14:58:57;15.60;;;4.00;;
51746;SDS011;37825;40.088;18.302;2023-03-14T15:01:34;24.48;;;7.88;;
51746;SDS011;37825;40.088;18.302;2023-03-14T15:04:04;11.95;;;4.22;;
51746;SDS011;37825;40.088;18.302;2023-03-14T15:06:36;13.98;;;5.40;;
51746;SDS011;37825;40.088;18.302;2023-03-14T15:09:05;15.02;;;6.65;;
51746;SDS011;37825;40.088;18.302;2023-03-14T15:11:33;18.15;;;8.98;;
51746;SDS011;37825;40.088;18.302;2023-03-14T15:14:01;17.63;;;8.18;;
51746;SDS011;37825;40.088;18.302;2023-03-14T15:16:31;11.45;;;6.88;;
51746;SDS011;37825;40.088;18.302;2023-03-14T15:19:00;11.25;;;4.70;;
51746;SDS011;37825;40.088;18.302;2023-03-14T15:21:47;17.48;;;4.28;;
51746;SDS011;37825;40.088;18.302;2023-03-14T15:24:16;18.55;;;8.57;;
51746;SDS011;37825;40.088;18.302;2023-03-14T15:26:44;12.65;;;5.80;;
51746;SDS011;37825;40.088;18.302;2023-03-14T15:29:12;26.15;;;11.10;;
51746;SDS011;37825;40.088;18.302;2023-03-14T15:31:41;21.00;;;10.02;;
51746;SDS011;37825;40.088;18.302;2023-03-14T15:34:10;11.77;;;4.90;;
51746;SDS011;37825;40.088;18.302;2023-03-14T15:36:39;16.20;;;6.22;;
51746;SDS011;37825;40.088;18.302;2023-03-14T15:39:09;38.28;;;25.95;;
51746;SDS011;37825;40.088;18.302;2023-03-14T15:41:38;18.52;;;8.95;;
51746;SDS011;37825;40.088;18.302;2023-03-14T15:44:06;14.05;;;4.65;;
51746;SDS011;37825;40.088;18.302;2023-03-14T15:46:34;17.05;;;7.15;;
51746;SDS011;37825;40.088;18.302;2023-03-14T15:49:02;21.17;;;8.15;;
51746;SDS011;37825;40.088;18.302;2023-03-14T15:51:31;19.90;;;4.22;;
51746;SDS011;37825;40.088;18.302;2023-03-14T15:53:59;16.10;;;5.15;;
51746;SDS011;37825;40.088;18.302;2023-03-14T15:56:27;10.60;;;5.30;;
51746;SDS011;37825;40.088;18.302;2023-03-14T15:58:58;13.17;;;5.93;;
51746;SDS011;37825;40.088;18.302;2023-03-14T16:01:26;15.73;;;6.78;;
51746;SDS011;37825;40.088;18.302;2023-03-14T16:03:55;19.17;;;7.32;;
51746;SDS011;37825;40.088;18.302;2023-03-14T16:06:23;26.45;;;13.43;;
51746;SDS011;37825;40.088;18.302;2023-03-14T16:08:51;15.68;;;4.70;;
51746;SDS011;37825;40.088;18.302;2023-03-14T16:11:20;11.18;;;4.50;;
51746;SDS011;37825;40.088;18.302;2023-03-14T16:13:49;17.42;;;8.15;;